Time;durP1;ratioP1;P1;durP2;ratioP2;P2;SDS_P1;SDS_P2;PMS_P1;PMS_P2;Temp;Humidity;BMP_temperature;BMP_pressure;BME280_temperature;BME280_humidity;BME280_pressure;Samples;Min_cycle;Max_cycle;Signal;HPM_P1;HPM_P2
2023/09/01 00:01:26;;;;;;;4.47;1.52;;;14.60;99.90;;;;;;4178800;28;20075;-58
2023/09/01 00:03:46;;;;;;;1.20;1.20;;;14.50;99.90;;;;;;4178714;28;20113;-58
2023/09/01 00:06:14;;;;;;;2.95;1.45;;;14.60;99.90;;;;;;4176824;28;20076;-58
2023/09/01 00:08:34;;;;;;;1.80;1.70;;;14.60;99.90;;;;;;4177367;28;20359;-57
2023/09/01 00:10:53;;;;;;;1.63;1.52;;;14.60;99.90;;;;;;4176938;28;20082;-58
2023/09/01 00:13:14;;;;;;;2.00;1.65;;;14.70;99.90;;;;;;4181477;28;20386;-59
2023/09/01 00:15:35;;;;;;;1.10;1.10;;;14.60;99.90;;;;;;4178813;28;20422;-58
2023/09/01 00:17:55;;;;;;;1.30;1.20;;;14.60;99.90;;;;;;4177590;28;20386;-58
2023/09/01 00:20:15;;;;;;;1.50;1.40;;;14.60;99.90;;;;;;4180963;28;20094;-58
2023/09/01 00:22:35;;;;;;;2.60;1.20;;;14.70;99.90;;;;;;4185679;28;20044;-58
2023/09/01 00:24:54;;;;;;;5.53;2.05;;;14.60;99.90;;;;;;4180268;28;20049;-58
2023/09/01 00:27:15;;;;;;;1.60;1.40;;;14.60;99.90;;;;;;4174572;28;20036;-58
2023/09/01 00:29:36;;;;;;;1.40;1.30;;;14.40;99.90;;;;;;4184704;28;20086;-58
2023/09/01 00:31:56;;;;;;;1.33;1.33;;;14.30;99.90;;;;;;4182247;28;20429;-57
2023/09/01 00:34:16;;;;;;;1.20;1.20;;;14.20;99.90;;;;;;4178169;28;20236;-58
2023/09/01 00:36:36;;;;;;;2.90;1.38;;;14.20;99.90;;;;;;4176962;28;20044;-58
2023/09/01 00:38:56;;;;;;;1.42;1.40;;;14.20;99.90;;;;;;4178644;28;20094;-57
2023/09/01 00:41:16;;;;;;;1.75;1.65;;;14.20;99.90;;;;;;4181106;28;20079;-59
2023/09/01 00:43:36;;;;;;;2.38;1.42;;;14.10;99.90;;;;;;4176905;28;20045;-58
2023/09/01 00:45:56;;;;;;;2.13;1.30;;;13.90;99.90;;;;;;4177089;28;20391;-58
2023/09/01 00:48:16;;;;;;;1.50;1.45;;;13.90;99.90;;;;;;4180001;28;20099;-58
2023/09/01 00:50:37;;;;;;;2.78;1.42;;;13.90;99.90;;;;;;4176871;28;20048;-58
2023/09/01 00:52:59;;;;;;;4.90;1.30;;;13.90;99.90;;;;;;4174269;28;20108;-58
2023/09/01 00:55:19;;;;;;;2.95;1.38;;;14.00;99.90;;;;;;4182481;28;20079;-58
2023/09/01 00:57:39;;;;;;;1.88;1.20;;;14.00;99.90;;;;;;4181412;28;20090;-59
2023/09/01 00:59:59;;;;;;;1.45;1.38;;;14.00;99.90;;;;;;4172822;28;20052;-58
2023/09/01 01:02:19;;;;;;;1.33;1.20;;;14.00;99.90;;;;;;4176779;28;20080;-59
2023/09/01 01:04:39;;;;;;;1.55;1.10;;;14.10;99.90;;;;;;4216888;22;20067;-58
2023/09/01 01:07:16;;;;;;;5.53;1.38;;;14.10;99.90;;;;;;4205845;28;20078;-59
2023/09/01 01:10:25;;;;;;;3.15;1.38;;;14.00;99.90;;;;;;4205352;28;20043;-58
2023/09/01 01:13:14;;;;;;;2.80;1.20;;;14.00;99.90;;;;;;4154811;28;20053;-58
2023/09/01 01:15:37;;;;;;;1.05;1.05;;;14.00;99.90;;;;;;4154751;28;20076;-58
2023/09/01 01:18:00;;;;;;;2.08;1.30;;;13.90;99.90;;;;;;4154840;28;20210;-58
2023/09/01 01:20:44;;;;;;;1.38;1.27;;;13.90;99.90;;;;;;4154452;28;20395;-58
2023/09/01 01:23:09;;;;;;;1.80;1.10;;;13.80;99.90;;;;;;4153962;28;20324;-58
2023/09/01 01:25:29;;;;;;;1.40;1.35;;;13.80;99.90;;;;;;4156945;28;20052;-58
2023/09/01 01:27:50;;;;;;;1.48;1.38;;;13.80;99.90;;;;;;4157219;28;20045;-58
2023/09/01 01:30:13;;;;;;;3.20;1.30;;;13.70;99.90;;;;;;4156513;28;20222;-58
2023/09/01 01:32:35;;;;;;;2.22;1.33;;;13.60;99.90;;;;;;4143791;28;20045;-58
2023/09/01 01:35:13;;;;;;;1.27;1.17;;;13.70;99.90;;;;;;4157405;28;20089;-58
2023/09/01 01:37:42;;;;;;;0.90;0.90;;;13.70;99.90;;;;;;4157457;28;20041;-58
2023/09/01 01:40:05;;;;;;;2.15;1.10;;;13.70;99.90;;;;;;4156992;28;20391;-58
2023/09/01 01:42:29;;;;;;;5.68;1.38;;;13.70;99.90;;;;;;4140972;28;20146;-59
2023/09/01 01:44:51;;;;;;;4.45;1.30;;;13.70;99.90;;;;;;4140733;28;20296;-58
2023/09/01 01:47:12;;;;;;;1.67;1.58;;;13.70;99.90;;;;;;4179033;28;20083;-58
2023/09/01 01:49:33;;;;;;;3.22;1.20;;;13.60;99.90;;;;;;4190280;28;20059;-58
2023/09/01 01:51:53;;;;;;;1.30;1.30;;;13.60;99.90;;;;;;4191746;28;20052;-58
2023/09/01 01:54:13;;;;;;;1.50;1.40;;;13.70;99.90;;;;;;4190734;28;20573;-58
2023/09/01 01:56:33;;;;;;;1.52;1.30;;;13.60;99.90;;;;;;4191592;28;20052;-58
2023/09/01 01:58:53;;;;;;;2.55;1.50;;;13.70;99.90;;;;;;4190923;28;20087;-58
2023/09/01 02:01:13;;;;;;;2.33;1.30;;;13.70;99.90;;;;;;4190309;28;20247;-59
2023/09/01 02:03:34;;;;;;;1.27;1.27;;;13.60;99.90;;;;;;4191488;28;20236;-59
2023/09/01 02:05:54;;;;;;;1.30;1.30;;;13.60;99.90;;;;;;4191225;28;20075;-59
2023/09/01 02:08:16;;;;;;;2.77;1.30;;;13.60;99.90;;;;;;4191688;28;20064;-58
2023/09/01 02:10:36;;;;;;;1.00;1.00;;;13.50;99.90;;;;;;4191442;28;20305;-59
2023/09/01 02:12:56;;;;;;;1.38;1.27;;;13.40;99.90;;;;;;4191357;28;20083;-59
2023/09/01 02:15:15;;;;;;;2.90;1.20;;;13.40;99.90;;;;;;4190329;28;20056;-58
2023/09/01 02:17:36;;;;;;;3.28;1.45;;;13.40;99.90;;;;;;4190255;28;20044;-58
2023/09/01 02:19:57;;;;;;;1.90;1.23;;;13.40;99.90;;;;;;4190594;28;20078;-59
2023/09/01 02:22:17;;;;;;;1.48;1.38;;;13.30;99.90;;;;;;4191081;28;20052;-58
2023/09/01 02:24:37;;;;;;;1.50;1.40;;;13.30;99.90;;;;;;4190715;28;20090;-59
2023/09/01 02:26:57;;;;;;;3.20;1.63;;;13.30;99.90;;;;;;4191079;28;20035;-58
2023/09/01 02:29:17;;;;;;;2.53;1.00;;;13.40;99.90;;;;;;4190994;28;20235;-59
2023/09/01 02:31:38;;;;;;;3.40;1.30;;;13.40;99.90;;;;;;4190549;28;20367;-58
2023/09/01 02:33:58;;;;;;;2.50;1.88;;;13.30;99.90;;;;;;4191140;28;20087;-59
2023/09/01 02:36:24;;;;;;;2.22;1.65;;;13.30;99.90;;;;;;4191036;28;20048;-59
2023/09/01 02:38:44;;;;;;;1.52;1.45;;;13.20;99.90;;;;;;4190905;28;20048;-59
2023/09/01 02:41:04;;;;;;;2.28;1.65;;;13.20;99.90;;;;;;4190370;28;20036;-59
2023/09/01 02:43:24;;;;;;;1.50;1.40;;;13.10;99.90;;;;;;4189931;28;20071;-59
2023/09/01 02:45:44;;;;;;;1.60;1.50;;;13.10;99.90;;;;;;4190912;28;20110;-59
2023/09/01 02:48:04;;;;;;;3.15;2.00;;;13.20;99.90;;;;;;4190943;28;20052;-58
2023/09/01 02:50:24;;;;;;;5.47;1.80;;;13.10;99.90;;;;;;4190022;28;20075;-58
2023/09/01 02:52:45;;;;;;;2.03;1.45;;;13.20;99.90;;;;;;4191043;28;20243;-59
2023/09/01 02:55:06;;;;;;;54.58;2.42;;;13.10;99.90;;;;;;4190584;28;20091;-59
2023/09/01 02:57:26;;;;;;;150.32;5.45;;;13.10;99.90;;;;;;4190951;28;20108;-58
2023/09/01 02:59:46;;;;;;;49.72;2.13;;;13.00;99.90;;;;;;4190408;28;20056;-58
2023/09/01 03:02:06;;;;;;;56.22;2.40;;;13.00;99.90;;;;;;4190508;28;20072;-59
2023/09/01 03:04:27;;;;;;;1.40;1.20;;;12.90;99.90;;;;;;4189694;28;20056;-59
2023/09/01 03:06:47;;;;;;;5.00;2.25;;;13.00;99.90;;;;;;4190850;28;20043;-58
2023/09/01 03:09:10;;;;;;;7.47;1.50;;;13.00;99.90;;;;;;4190772;28;20243;-58
2023/09/01 03:11:30;;;;;;;9.05;1.92;;;13.00;99.90;;;;;;4190634;28;20048;-59
2023/09/01 03:13:50;;;;;;;2.65;1.52;;;12.90;99.90;;;;;;4190432;28;20047;-59
2023/09/01 03:16:10;;;;;;;2.42;1.50;;;12.90;99.90;;;;;;4189860;28;20231;-58
2023/09/01 03:18:30;;;;;;;24.50;2.22;;;12.90;99.90;;;;;;4190173;28;20370;-58
2023/09/01 03:20:50;;;;;;;8.13;2.20;;;12.90;99.90;;;;;;4189776;28;20040;-59
2023/09/01 03:23:11;;;;;;;48.97;1.77;;;12.90;99.90;;;;;;4190549;28;20048;-58
2023/09/01 03:25:31;;;;;;;1.60;1.50;;;12.70;99.90;;;;;;4190386;28;20103;-58
2023/09/01 03:27:51;;;;;;;5.70;1.63;;;12.70;99.90;;;;;;4190640;28;20067;-58
2023/09/01 03:30:12;;;;;;;3.42;1.88;;;12.70;99.90;;;;;;4188696;28;20056;-58
2023/09/01 03:32:31;;;;;;;15.02;2.22;;;12.80;99.90;;;;;;4190427;28;20091;-59
2023/09/01 03:34:52;;;;;;;2.20;1.88;;;12.70;99.90;;;;;;4189598;28;20048;-59
2023/09/01 03:37:12;;;;;;;1.50;1.40;;;12.60;99.90;;;;;;4190448;28;20048;-58
2023/09/01 03:39:32;;;;;;;2.75;1.70;;;12.50;99.90;;;;;;4189622;28;20052;-59
2023/09/01 03:41:52;;;;;;;12.50;1.70;;;12.50;99.90;;;;;;4189781;28;20044;-59
2023/09/01 03:44:12;;;;;;;2.05;1.95;;;12.40;99.90;;;;;;4189930;28;20235;-58
2023/09/01 03:46:32;;;;;;;2.17;2.03;;;12.50;99.90;;;;;;4190197;28;20232;-59
2023/09/01 03:48:52;;;;;;;8.13;1.50;;;12.60;99.90;;;;;;4189913;28;20362;-58
2023/09/01 03:51:14;;;;;;;2.20;1.92;;;12.60;99.90;;;;;;4189690;28;20043;-59
2023/09/01 03:53:35;;;;;;;8.15;1.85;;;12.70;99.90;;;;;;4189293;28;20111;-59
2023/09/01 03:55:54;;;;;;;5.47;1.40;;;12.50;99.90;;;;;;4190101;28;20047;-59
2023/09/01 03:58:15;;;;;;;99.20;4.05;;;12.50;99.90;;;;;;4189636;28;20051;-59
2023/09/01 04:00:36;;;;;;;11.10;1.48;;;12.50;99.90;;;;;;4189148;28;20063;-59
2023/09/01 04:02:56;;;;;;;1.60;1.60;;;12.60;99.90;;;;;;4189518;28;20410;-59
2023/09/01 04:05:16;;;;;;;5.13;1.80;;;12.70;99.90;;;;;;4189940;28;20371;-59
2023/09/01 04:07:36;;;;;;;1.80;1.70;;;12.70;99.90;;;;;;4189234;28;20244;-59
2023/09/01 04:09:58;;;;;;;5.90;1.80;;;12.80;99.90;;;;;;4188011;28;20051;-58
2023/09/01 04:12:18;;;;;;;4.55;1.35;;;12.80;99.90;;;;;;4189946;28;20174;-58
2023/09/01 04:14:38;;;;;;;4.35;1.63;;;12.80;99.90;;;;;;4189834;28;20056;-59
2023/09/01 04:16:58;;;;;;;16.38;1.77;;;12.80;99.90;;;;;;4189849;28;20075;-59
2023/09/01 04:19:17;;;;;;;35.30;3.33;;;12.70;99.90;;;;;;4189888;28;20067;-59
2023/09/01 04:21:38;;;;;;;10.57;2.50;;;12.60;99.90;;;;;;4189134;28;20047;-59
2023/09/01 04:23:58;;;;;;;7.95;2.42;;;12.60;99.90;;;;;;4189192;28;20051;-59
2023/09/01 04:26:18;;;;;;;5.78;1.77;;;12.60;99.90;;;;;;4189681;28;20370;-59
2023/09/01 04:28:38;;;;;;;3.42;2.17;;;12.60;99.90;;;;;;4189407;28;20071;-59
2023/09/01 04:30:59;;;;;;;2.70;2.58;;;12.60;99.90;;;;;;4189056;28;20059;-59
2023/09/01 04:33:19;;;;;;;5.53;2.00;;;12.50;99.90;;;;;;4188886;28;20052;-59
2023/09/01 04:35:39;;;;;;;9.20;2.13;;;12.40;99.90;;;;;;4188787;28;20264;-59
2023/09/01 04:38:00;;;;;;;10.75;2.08;;;12.40;99.90;;;;;;4188465;28;20051;-59
2023/09/01 04:40:20;;;;;;;11.88;2.50;;;12.40;99.90;;;;;;4189301;28;20350;-59
2023/09/01 04:42:40;;;;;;;192.18;9.02;;;12.40;99.90;;;;;;4189581;28;20060;-59
2023/09/01 04:45:00;;;;;;;76.35;4.47;;;12.30;99.90;;;;;;4189041;28;20071;-60
2023/09/01 04:47:20;;;;;;;283.33;12.02;;;12.30;99.90;;;;;;4189384;28;20075;-59
2023/09/01 04:49:40;;;;;;;116.95;5.28;;;12.20;99.90;;;;;;4189581;28;20235;-59
2023/09/01 04:52:00;;;;;;;3.13;2.75;;;12.30;99.90;;;;;;4188991;28;20267;-59
2023/09/01 04:54:20;;;;;;;36.47;2.88;;;12.30;99.90;;;;;;4186912;28;20044;-60
2023/09/01 04:56:39;;;;;;;106.10;4.55;;;12.30;99.90;;;;;;4189383;28;20119;-60
2023/09/01 04:59:00;;;;;;;130.38;7.07;;;12.30;99.90;;;;;;4188229;28;20102;-59
2023/09/01 05:01:20;;;;;;;1.65;1.42;;;12.20;99.90;;;;;;4187975;28;20047;-59
2023/09/01 05:03:40;;;;;;;1.60;1.60;;;12.30;99.90;;;;;;4188765;28;20090;-60
2023/09/01 05:06:01;;;;;;;90.43;4.82;;;12.30;99.90;;;;;;4189186;28;20083;-60
2023/09/01 05:08:21;;;;;;;55.67;3.33;;;12.40;99.90;;;;;;4189036;28;20044;-60
2023/09/01 05:10:40;;;;;;;84.97;3.60;;;12.30;99.90;;;;;;4189308;28;20382;-60
2023/09/01 05:13:00;;;;;;;88.57;3.20;;;12.30;99.90;;;;;;4189298;28;20051;-60
2023/09/01 05:15:20;;;;;;;1.30;1.30;;;12.30;99.90;;;;;;4189195;28;20371;-60
2023/09/01 05:17:40;;;;;;;17.38;2.05;;;12.30;99.90;;;;;;4187727;28;20079;-59
2023/09/01 05:20:01;;;;;;;42.25;2.72;;;12.40;99.90;;;;;;4188943;28;20067;-60
2023/09/01 05:22:21;;;;;;;63.42;3.28;;;12.30;99.90;;;;;;4186823;28;20102;-59
2023/09/01 05:24:41;;;;;;;6.22;1.75;;;12.30;99.90;;;;;;4187904;28;20243;-59
2023/09/01 05:27:03;;;;;;;9.07;1.70;;;12.40;99.90;;;;;;4188578;28;20414;-59
2023/09/01 05:29:24;;;;;;;14.20;1.90;;;12.40;99.90;;;;;;4188820;28;20102;-60
2023/09/01 05:31:44;;;;;;;22.38;1.65;;;12.40;99.90;;;;;;4188579;28;20274;-59
2023/09/01 05:34:04;;;;;;;18.38;2.58;;;12.40;99.90;;;;;;4189058;28;20374;-59
2023/09/01 05:36:24;;;;;;;23.55;2.30;;;12.40;99.90;;;;;;4187928;28;20047;-60
2023/09/01 05:38:44;;;;;;;24.40;2.38;;;12.40;99.90;;;;;;4187705;28;20052;-60
2023/09/01 05:41:05;;;;;;;15.57;1.63;;;12.40;99.90;;;;;;4188089;28;20148;-60
2023/09/01 05:43:25;;;;;;;60.80;3.33;;;12.50;99.90;;;;;;4187536;28;20063;-60
2023/09/01 05:45:45;;;;;;;11.10;1.73;;;12.60;99.90;;;;;;4188751;28;20044;-60
2023/09/01 05:48:06;;;;;;;11.73;1.88;;;12.70;99.90;;;;;;4188825;28;20118;-60
2023/09/01 05:50:25;;;;;;;19.02;2.08;;;12.80;99.90;;;;;;4188747;28;20240;-60
2023/09/01 05:52:46;;;;;;;102.00;4.93;;;12.80;99.90;;;;;;4188781;28;20094;-60
2023/09/01 05:55:06;;;;;;;8.90;1.63;;;12.80;99.90;;;;;;4187921;28;20075;-60
2023/09/01 05:57:26;;;;;;;4.80;2.08;;;12.80;99.90;;;;;;4188839;28;20052;-60
2023/09/01 05:59:47;;;;;;;2.50;2.30;;;12.90;99.90;;;;;;4188709;28;20048;-59
2023/09/01 06:02:07;;;;;;;69.10;3.28;;;13.00;99.90;;;;;;4188242;28;20036;-60
2023/09/01 06:04:27;;;;;;;47.13;2.83;;;12.90;99.90;;;;;;4188065;28;20103;-60
2023/09/01 06:06:48;;;;;;;97.68;4.55;;;13.00;99.90;;;;;;4187740;28;20263;-60
2023/09/01 06:09:09;;;;;;;1.80;1.70;;;13.00;99.90;;;;;;4188269;28;20052;-60
2023/09/01 06:11:30;;;;;;;1.60;1.50;;;13.00;99.90;;;;;;4189487;28;20052;-60
2023/09/01 06:13:50;;;;;;;6.90;1.65;;;13.10;99.90;;;;;;4191396;28;20047;-59
2023/09/01 06:16:10;;;;;;;62.15;2.97;;;13.20;99.90;;;;;;4191415;28;20035;-59
2023/09/01 06:18:30;;;;;;;53.35;2.50;;;13.30;99.90;;;;;;4190802;28;20055;-59
2023/09/01 06:20:51;;;;;;;8.50;2.45;;;13.10;99.90;;;;;;4189689;28;20051;-60
2023/09/01 06:23:10;;;;;;;26.38;2.13;;;13.10;99.90;;;;;;4191303;28;20367;-59
2023/09/01 06:25:30;;;;;;;29.27;2.78;;;13.10;99.90;;;;;;4191025;28;20040;-59
2023/09/01 06:27:50;;;;;;;6.68;1.73;;;13.30;99.90;;;;;;4190997;28;20048;-59
2023/09/01 06:30:11;;;;;;;7.22;2.47;;;13.40;99.90;;;;;;4190911;28;20098;-59
2023/09/01 06:32:32;;;;;;;3.03;2.33;;;13.50;99.90;;;;;;4191282;28;20052;-59
2023/09/01 06:34:52;;;;;;;3.90;2.45;;;13.60;99.90;;;;;;4190097;28;20087;-59
2023/09/01 06:37:12;;;;;;;1.35;1.35;;;13.80;99.90;;;;;;4188848;28;20090;-59
2023/09/01 06:39:32;;;;;;;2.38;1.73;;;13.90;99.90;;;;;;4191147;28;20048;-59
2023/09/01 06:41:52;;;;;;;2.20;2.05;;;14.00;99.90;;;;;;4191125;28;20044;-59
2023/09/01 06:44:11;;;;;;;2.83;2.55;;;13.90;99.90;;;;;;4189501;28;20430;-59
2023/09/01 06:46:32;;;;;;;3.22;2.00;;;13.90;99.90;;;;;;4189825;28;20067;-59
2023/09/01 06:48:52;;;;;;;3.20;2.92;;;14.00;99.90;;;;;;4191087;28;20082;-59
2023/09/01 06:51:12;;;;;;;2.65;2.55;;;14.10;99.90;;;;;;4190735;28;20036;-59
2023/09/01 06:53:33;;;;;;;4.03;1.42;;;14.20;99.90;;;;;;4189952;28;20283;-59
2023/09/01 06:55:52;;;;;;;1.85;1.85;;;14.20;99.90;;;;;;4190945;28;20047;-59
2023/09/01 06:58:13;;;;;;;1.92;1.92;;;14.10;99.90;;;;;;4190891;28;20075;-59
2023/09/01 07:00:33;;;;;;;1.90;1.90;;;14.20;99.90;;;;;;4188835;28;20071;-59
2023/09/01 07:02:53;;;;;;;2.00;2.00;;;14.40;99.90;;;;;;4190852;28;20055;-59
2023/09/01 07:05:16;;;;;;;2.30;2.10;;;14.50;99.90;;;;;;4190658;28;20070;-59
2023/09/01 07:07:36;;;;;;;2.53;2.03;;;14.80;99.90;;;;;;4189931;28;20067;-59
2023/09/01 07:09:56;;;;;;;32.15;2.90;;;14.80;99.90;;;;;;4190778;28;20287;-59
2023/09/01 07:12:15;;;;;;;4.97;1.65;;;14.60;99.90;;;;;;4190596;28;20085;-59
2023/09/01 07:14:35;;;;;;;3.80;1.92;;;14.60;99.90;;;;;;4190679;28;20231;-59
2023/09/01 07:16:55;;;;;;;1.50;1.50;;;14.70;99.90;;;;;;4189452;28;20135;-59
2023/09/01 07:19:15;;;;;;;1.40;1.40;;;14.80;99.90;;;;;;4190651;28;20101;-59
2023/09/01 07:21:35;;;;;;;1.58;1.20;;;15.10;99.90;;;;;;4188917;28;20069;-59
2023/09/01 07:23:55;;;;;;;1.45;1.45;;;15.40;99.90;;;;;;4190368;28;20052;-59
2023/09/01 07:26:15;;;;;;;3.72;1.67;;;15.50;99.90;;;;;;4188919;28;20056;-60
2023/09/01 07:28:35;;;;;;;2.42;1.30;;;15.50;99.90;;;;;;4190241;28;20052;-59
2023/09/01 07:30:54;;;;;;;1.48;1.27;;;15.80;99.90;;;;;;4190449;28;20091;-59
2023/09/01 07:33:18;;;;;;;1.10;1.10;;;16.10;99.90;;;;;;4190508;28;20146;-59
2023/09/01 07:35:38;;;;;;;1.30;1.30;;;16.30;99.90;;;;;;4190396;28;20102;-59
2023/09/01 07:37:58;;;;;;;1.10;1.10;;;16.30;99.90;;;;;;4188787;28;20052;-59
2023/09/01 07:40:18;;;;;;;1.20;1.20;;;16.60;99.90;;;;;;4190168;28;20393;-59
2023/09/01 07:42:38;;;;;;;1.02;1.02;;;16.60;99.90;;;;;;4190014;28;20047;-59
2023/09/01 07:44:58;;;;;;;2.83;1.13;;;16.70;99.90;;;;;;4189108;28;20407;-59
2023/09/01 07:47:18;;;;;;;1.23;1.23;;;16.80;99.90;;;;;;4188825;28;20036;-59
2023/09/01 07:49:38;;;;;;;1.10;1.00;;;16.90;99.90;;;;;;4190292;28;20047;-59
2023/09/01 07:51:59;;;;;;;1.25;1.15;;;17.00;99.90;;;;;;4189139;28;20044;-59
2023/09/01 07:54:19;;;;;;;1.75;1.00;;;17.20;99.90;;;;;;4190140;28;20108;-59
2023/09/01 07:56:39;;;;;;;2.22;1.10;;;17.40;99.90;;;;;;4189910;28;20083;-59
2023/09/01 07:58:59;;;;;;;1.10;1.10;;;17.50;99.90;;;;;;4189695;28;20079;-59
2023/09/01 08:01:20;;;;;;;1.17;0.98;;;18.10;99.90;;;;;;4188521;28;20044;-59
2023/09/01 08:03:40;;;;;;;3.63;1.17;;;18.50;99.90;;;;;;4190109;28;20056;-59
2023/09/01 08:06:00;;;;;;;1.10;1.00;;;18.60;99.90;;;;;;4189980;28;20225;-60
2023/09/01 08:08:20;;;;;;;1.30;1.30;;;18.60;99.90;;;;;;4189628;28;20044;-60
2023/09/01 08:10:41;;;;;;;2.05;1.20;;;18.70;99.90;;;;;;4188867;28;20067;-59
2023/09/01 08:13:01;;;;;;;1.85;1.63;;;18.80;99.90;;;;;;4189334;28;20240;-60
2023/09/01 08:15:21;;;;;;;1.67;1.02;;;19.30;99.90;;;;;;4189109;28;20048;-60
2023/09/01 08:17:41;;;;;;;2.20;1.63;;;19.20;99.90;;;;;;4188659;28;20048;-59
2023/09/01 08:20:03;;;;;;;2.35;1.02;;;19.40;99.90;;;;;;4189581;28;20048;-59
2023/09/01 08:22:23;;;;;;;1.20;0.95;;;19.60;99.90;;;;;;4189571;28;20044;-60
2023/09/01 08:24:44;;;;;;;1.40;0.90;;;19.80;99.90;;;;;;4188237;28;20051;-59
2023/09/01 08:27:05;;;;;;;1.95;1.25;;;19.90;99.90;;;;;;4189366;28;20075;-59
2023/09/01 08:29:28;;;;;;;1.10;1.00;;;20.30;99.90;;;;;;4189251;28;20109;-60
2023/09/01 08:31:48;;;;;;;2.28;1.13;;;20.20;99.90;;;;;;4189204;28;20116;-60
2023/09/01 08:34:10;;;;;;;1.58;1.00;;;20.00;99.90;;;;;;4187796;28;20048;-59
2023/09/01 08:36:30;;;;;;;3.35;1.00;;;20.30;99.90;;;;;;4189227;28;20402;-59
2023/09/01 08:38:50;;;;;;;1.67;1.05;;;20.30;99.90;;;;;;4188337;28;20076;-59
2023/09/01 08:41:11;;;;;;;1.77;0.90;;;20.80;99.90;;;;;;4188945;28;20056;-59
2023/09/01 08:43:36;;;;;;;2.50;0.88;;;20.80;99.90;;;;;;4189092;28;20048;-59
2023/09/01 08:45:56;;;;;;;2.67;0.80;;;21.20;99.90;;;;;;4188614;28;20072;-59
2023/09/01 08:48:34;;;;;;;1.33;0.80;;;21.40;99.90;;;;;;4189134;28;20274;-59
2023/09/01 08:50:55;;;;;;;5.68;1.70;;;21.70;99.90;;;;;;4187821;28;20105;-60
2023/09/01 08:53:15;;;;;;;1.50;0.80;;;21.80;99.90;;;;;;4188893;28;20044;-59
2023/09/01 08:55:37;;;;;;;0.82;0.82;;;21.60;99.90;;;;;;4188716;28;20040;-60
2023/09/01 08:57:57;;;;;;;1.65;0.90;;;21.70;99.90;;;;;;4188437;28;20052;-59
2023/09/01 09:00:17;;;;;;;2.40;0.85;;;21.60;99.90;;;;;;4188863;28;20087;-59
2023/09/01 09:02:42;;;;;;;0.80;0.80;;;21.90;99.90;;;;;;4188015;28;20047;-60
2023/09/01 09:05:16;;;;;;;2.45;0.90;;;22.10;99.90;;;;;;4188814;28;20094;-59
2023/09/01 09:07:36;;;;;;;1.60;0.80;;;22.30;99.90;;;;;;4186906;28;20232;-60
2023/09/01 09:09:59;;;;;;;0.80;0.80;;;22.30;99.20;;;;;;4187225;28;20375;-59
2023/09/01 09:12:21;;;;;;;0.80;0.80;;;22.10;99.60;;;;;;4188289;28;20059;-59
2023/09/01 09:14:52;;;;;;;2.58;1.17;;;22.50;99.70;;;;;;4187792;28;20064;-60
2023/09/01 09:17:23;;;;;;;2.13;0.82;;;22.50;97.10;;;;;;4188761;28;20086;-59
2023/09/01 09:19:59;;;;;;;0.80;0.80;;;22.60;96.40;;;;;;4188174;28;20052;-59
2023/09/01 09:22:20;;;;;;;0.82;0.70;;;22.70;97.10;;;;;;4187768;28;20040;-60
2023/09/01 09:24:41;;;;;;;0.80;0.80;;;22.90;96.40;;;;;;4188710;28;20290;-60
2023/09/01 09:27:03;;;;;;;0.80;0.75;;;23.30;95.10;;;;;;4188702;28;20091;-60
2023/09/01 09:29:24;;;;;;;1.70;0.80;;;23.50;94.70;;;;;;4188336;28;20063;-59
2023/09/01 09:31:44;;;;;;;1.15;0.90;;;23.50;95.20;;;;;;4188493;28;20117;-60
2023/09/01 09:34:22;;;;;;;0.93;0.70;;;23.40;95.80;;;;;;4188642;28;20086;-59
2023/09/01 09:36:46;;;;;;;1.85;0.80;;;23.30;95.60;;;;;;4188095;28;20060;-59
2023/09/01 09:39:21;;;;;;;1.52;0.80;;;23.10;96.30;;;;;;4188481;28;20052;-59
2023/09/01 09:41:48;;;;;;;1.33;1.23;;;22.90;95.60;;;;;;4187661;28;20158;-59
2023/09/01 09:44:08;;;;;;;0.98;0.80;;;23.20;97.40;;;;;;4188536;28;20236;-59
2023/09/01 09:46:40;;;;;;;0.75;0.70;;;23.60;97.20;;;;;;4190217;28;20055;-59
2023/09/01 09:48:59;;;;;;;0.80;0.80;;;23.90;97.70;;;;;;4190363;28;20043;-59
2023/09/01 09:51:21;;;;;;;1.58;0.70;;;23.80;97.80;;;;;;4204268;28;20048;-59
2023/09/01 09:53:42;;;;;;;0.70;0.70;;;23.70;98.00;;;;;;4189422;28;20047;-60
2023/09/01 09:56:30;;;;;;;0.93;0.93;;;23.80;96.90;;;;;;4190783;28;20052;-59
2023/09/01 09:58:52;;;;;;;0.82;0.80;;;24.30;97.30;;;;;;4191249;28;20048;-59
2023/09/01 10:01:20;;;;;;;0.80;0.80;;;24.80;95.40;;;;;;4190199;28;20072;-59
2023/09/01 10:03:40;;;;;;;1.45;1.13;;;24.40;95.40;;;;;;4190483;28;20167;-59
2023/09/01 10:06:04;;;;;;;0.90;0.80;;;24.40;96.30;;;;;;4191335;28;20100;-59
2023/09/01 10:08:24;;;;;;;1.35;0.68;;;24.40;96.40;;;;;;4191268;28;20052;-59
2023/09/01 10:10:44;;;;;;;1.42;0.70;;;24.90;98.00;;;;;;4190975;28;20321;-60
2023/09/01 10:13:08;;;;;;;1.05;0.70;;;24.40;95.60;;;;;;4190424;28;20060;-59
2023/09/01 10:15:28;;;;;;;1.17;0.70;;;24.30;96.70;;;;;;4190762;28;20235;-59
2023/09/01 10:17:50;;;;;;;1.50;0.73;;;24.50;96.00;;;;;;4190767;28;20051;-59
2023/09/01 10:20:12;;;;;;;1.70;0.80;;;24.80;95.40;;;;;;4190808;28;20095;-59
2023/09/01 10:22:38;;;;;;;0.93;0.70;;;24.80;94.50;;;;;;4190535;28;20051;-59
2023/09/01 10:25:19;;;;;;;1.38;0.70;;;24.80;94.60;;;;;;4190047;28;20040;-63
2023/09/01 10:28:10;;;;;;;0.70;0.70;;;25.60;96.70;;;;;;4190930;28;20076;-59
2023/09/01 10:30:36;;;;;;;0.80;0.70;;;25.20;94.00;;;;;;4190427;28;20047;-59
2023/09/01 10:33:09;;;;;;;1.10;1.00;;;24.90;93.70;;;;;;4190447;28;20056;-59
2023/09/01 10:35:38;;;;;;;0.70;0.70;;;24.90;95.40;;;;;;4188768;28;20071;-60
2023/09/01 10:38:17;;;;;;;0.60;0.60;;;25.50;92.90;;;;;;4190303;28;20044;-60
2023/09/01 10:40:48;;;;;;;0.70;0.70;;;25.60;94.90;;;;;;4189842;28;20056;-60
2023/09/01 10:43:08;;;;;;;1.02;0.70;;;25.60;92.10;;;;;;4190560;28;20047;-60
2023/09/01 10:45:28;;;;;;;2.13;0.80;;;25.80;93.30;;;;;;4189671;28;20052;-59
2023/09/01 10:47:51;;;;;;;0.88;0.70;;;25.50;93.10;;;;;;4190466;28;20052;-60
2023/09/01 10:50:12;;;;;;;1.33;0.70;;;25.70;94.80;;;;;;4188979;28;20084;-59
2023/09/01 10:52:32;;;;;;;0.77;0.68;;;26.00;94.60;;;;;;4190451;28;20083;-59
2023/09/01 10:55:06;;;;;;;0.85;0.80;;;25.70;94.40;;;;;;4189829;28;20052;-59
2023/09/01 10:57:46;;;;;;;2.92;1.13;;;25.70;95.90;;;;;;4188390;28;20102;-60
2023/09/01 11:00:34;;;;;;;1.45;0.70;;;26.30;95.80;;;;;;4190309;28;20048;-59
2023/09/01 11:03:15;;;;;;;1.05;0.73;;;25.70;93.40;;;;;;4189217;28;20055;-60
2023/09/01 11:05:37;;;;;;;1.40;0.90;;;25.40;94.30;;;;;;4190003;28;20059;-59
2023/09/01 11:08:14;;;;;;;0.60;0.60;;;25.20;93.20;;;;;;4189182;28;20067;-59
2023/09/01 11:10:34;;;;;;;0.85;0.70;;;25.90;94.80;;;;;;4188179;28;20067;-59
2023/09/01 11:12:53;;;;;;;0.70;0.70;;;25.50;93.00;;;;;;4189223;28;20099;-60
2023/09/01 11:15:13;;;;;;;0.98;0.70;;;25.60;93.00;;;;;;4190444;28;20137;-60
2023/09/01 11:17:39;;;;;;;0.63;0.60;;;25.90;94.40;;;;;;4189703;28;20090;-59
2023/09/01 11:19:59;;;;;;;2.35;0.70;;;26.60;93.30;;;;;;4189711;28;20048;-59
2023/09/01 11:22:20;;;;;;;0.85;0.70;;;27.20;92.30;;;;;;4189755;28;20398;-59
2023/09/01 11:24:45;;;;;;;0.60;0.60;;;27.40;93.60;;;;;;4190093;28;20080;-59
2023/09/01 11:27:04;;;;;;;1.00;0.60;;;27.40;90.70;;;;;;4190043;28;20039;-60
2023/09/01 11:29:25;;;;;;;2.10;0.70;;;27.60;91.00;;;;;;4190072;28;20087;-59
2023/09/01 11:31:45;;;;;;;0.60;0.60;;;27.50;91.30;;;;;;4190031;28;20381;-60
2023/09/01 11:34:06;;;;;;;0.60;0.60;;;27.20;91.50;;;;;;4188828;28;20048;-59
2023/09/01 11:36:25;;;;;;;0.65;0.50;;;27.60;90.50;;;;;;4189186;28;20102;-60
2023/09/01 11:38:46;;;;;;;1.27;0.70;;;27.60;82.90;;;;;;4189312;28;20112;-60
2023/09/01 11:41:12;;;;;;;1.05;0.60;;;27.40;86.50;;;;;;4189900;28;20040;-59
2023/09/01 11:43:32;;;;;;;1.05;0.93;;;27.50;87.60;;;;;;4188476;28;20059;-59
2023/09/01 11:45:52;;;;;;;1.27;0.65;;;27.30;84.20;;;;;;4189887;28;20044;-60
2023/09/01 11:48:26;;;;;;;0.50;0.50;;;27.10;85.50;;;;;;4189008;28;20047;-60
2023/09/01 11:50:46;;;;;;;2.20;0.63;;;26.70;85.20;;;;;;4186991;28;20036;-59
2023/09/01 11:53:06;;;;;;;0.63;0.60;;;26.90;83.60;;;;;;4189851;28;20105;-60
2023/09/01 11:55:30;;;;;;;1.80;0.70;;;26.80;82.70;;;;;;4189668;28;20150;-60
2023/09/01 11:57:54;;;;;;;0.55;0.55;;;26.70;84.20;;;;;;4189567;28;20047;-60
2023/09/01 12:00:32;;;;;;;2.10;0.60;;;26.70;86.50;;;;;;4189084;28;20067;-59
2023/09/01 12:02:51;;;;;;;0.60;0.60;;;27.30;88.60;;;;;;4189589;28;20064;-59
2023/09/01 12:05:12;;;;;;;0.60;0.60;;;27.30;85.30;;;;;;4188510;28;20375;-59
2023/09/01 12:07:31;;;;;;;0.50;0.50;;;27.40;88.30;;;;;;4189081;28;20236;-59
2023/09/01 12:09:54;;;;;;;0.82;0.70;;;28.10;83.20;;;;;;4188600;28;20087;-60
2023/09/01 12:12:13;;;;;;;2.30;0.60;;;27.50;84.90;;;;;;4189400;28;20140;-59
2023/09/01 12:14:35;;;;;;;0.70;0.60;;;27.80;85.10;;;;;;4189548;28;20051;-60
2023/09/01 12:16:55;;;;;;;1.23;0.60;;;27.10;81.40;;;;;;4188845;28;20051;-60
2023/09/01 12:19:16;;;;;;;0.63;0.60;;;27.00;85.30;;;;;;4189051;28;20052;-59